createdAt,value
2023-04-18T00:01:53.898Z,22.38
2023-04-18T00:04:20.963Z,22.16
2023-04-18T00:06:48.218Z,22.19
2023-04-18T00:09:15.346Z,22.25
2023-04-18T00:11:42.222Z,22.25
2023-04-18T00:14:09.074Z,22.29
2023-04-18T00:16:36.007Z,22.23
2023-04-18T00:19:02.830Z,22.17
2023-04-18T00:21:32.432Z,22.21
2023-04-18T00:23:59.236Z,22.18
2023-04-18T00:26:26.644Z,22.22
2023-04-18T00:28:53.417Z,22.16
2023-04-18T00:31:20.226Z,22.15
2023-04-18T00:33:46.911Z,22.21
2023-04-18T00:36:13.630Z,22.22
2023-04-18T00:38:40.566Z,22.24
2023-04-18T00:41:07.276Z,22.26
2023-04-18T00:43:34.096Z,22.27
2023-04-18T00:46:01.279Z,22.32
2023-04-18T00:48:28.134Z,22.29
2023-04-18T00:50:57.863Z,22.36
2023-04-18T00:53:24.748Z,22.28
2023-04-18T00:55:51.514Z,22.31
2023-04-18T00:58:18.302Z,22.28
2023-04-18T01:00:45.070Z,22.31
2023-04-18T01:03:11.927Z,22.34
2023-04-18T01:05:38.884Z,22.31
2023-04-18T01:08:05.639Z,22.26
2023-04-18T01:10:32.494Z,22.30
2023-04-18T01:13:18.386Z,22.34
2023-04-18T01:15:46.675Z,22.30
2023-04-18T01:18:13.860Z,22.29
2023-04-18T01:20:42.164Z,22.25
2023-04-18T01:23:08.938Z,22.32
2023-04-18T01:25:35.817Z,22.33
2023-04-18T01:28:02.624Z,22.35
2023-04-18T01:30:29.423Z,22.32
2023-04-18T01:32:56.202Z,22.33
2023-04-18T01:35:23.124Z,22.25
2023-04-18T01:37:49.885Z,22.27
2023-04-18T01:40:16.817Z,22.26
2023-04-18T01:42:43.547Z,22.22
2023-04-18T01:45:11.539Z,22.26
2023-04-18T01:47:38.472Z,22.28
2023-04-18T01:50:06.072Z,22.32
2023-04-18T01:52:32.861Z,22.28
2023-04-18T01:54:59.580Z,22.30
2023-04-18T01:57:26.441Z,22.33
2023-04-18T01:59:53.176Z,22.29
2023-04-18T02:02:20.218Z,22.35
2023-04-18T02:04:47.091Z,22.32
2023-04-18T02:07:13.819Z,22.31
2023-04-18T02:09:45.915Z,22.29
2023-04-18T02:12:12.672Z,22.33
2023-04-18T02:14:39.414Z,22.27
2023-04-18T02:17:06.459Z,22.18
2023-04-18T02:19:33.266Z,22.24
2023-04-18T02:22:00.188Z,22.26
2023-04-18T02:24:27.043Z,22.26
2023-04-18T02:26:56.587Z,22.28
2023-04-18T02:29:26.162Z,22.23
2023-04-18T02:31:52.998Z,22.25
2023-04-18T02:34:19.769Z,22.26
2023-04-18T02:36:46.792Z,22.26
2023-04-18T02:39:13.640Z,22.26
2023-04-18T02:41:40.496Z,22.22
2023-04-18T02:44:08.370Z,22.23
2023-04-18T02:46:35.186Z,22.24
2023-04-18T02:49:01.943Z,22.23
2023-04-18T02:51:32.175Z,22.25
2023-04-18T02:53:58.977Z,22.22
2023-04-18T02:56:25.748Z,22.24
2023-04-18T02:58:52.499Z,22.27
2023-04-18T03:01:19.301Z,22.26
2023-04-18T03:03:46.109Z,22.26
2023-04-18T03:06:12.826Z,22.31
2023-04-18T03:08:41.409Z,22.28
2023-04-18T03:11:08.133Z,22.27
2023-04-18T03:13:35.078Z,22.23
2023-04-18T03:16:01.982Z,22.27
2023-04-18T03:18:28.903Z,22.27
2023-04-18T03:20:55.657Z,22.30
2023-04-18T03:23:25.510Z,22.27
2023-04-18T03:25:54.748Z,22.30
2023-04-18T03:28:21.609Z,22.28
2023-04-18T03:30:48.532Z,22.28
2023-04-18T03:33:15.230Z,22.28
2023-04-18T03:35:42.019Z,22.28
2023-04-18T03:38:08.767Z,22.29
2023-04-18T03:40:35.598Z,22.29
2023-04-18T03:43:02.335Z,22.28
2023-04-18T03:45:29.128Z,22.30
2023-04-18T03:47:55.921Z,22.27
2023-04-18T03:50:22.638Z,22.29
2023-04-18T03:52:49.452Z,22.29
2023-04-18T03:55:16.232Z,22.29
2023-04-18T03:57:42.951Z,22.27
2023-04-18T04:00:10.291Z,22.28
2023-04-18T04:02:39.475Z,22.27
2023-04-18T04:05:06.712Z,22.26
2023-04-18T04:07:33.734Z,22.24
2023-04-18T04:10:00.601Z,22.21
2023-04-18T04:12:28.852Z,22.14
2023-04-18T04:14:55.755Z,22.19
2023-04-18T04:17:22.583Z,22.13
2023-04-18T04:19:49.605Z,22.18
2023-04-18T04:22:16.348Z,22.19
2023-04-18T04:24:43.586Z,22.23
2023-04-18T04:27:10.507Z,22.19
2023-04-18T04:29:37.388Z,22.21
2023-04-18T04:32:04.341Z,22.21
2023-04-18T04:34:31.162Z,22.23
2023-04-18T04:36:57.988Z,22.23
2023-04-18T04:39:27.228Z,22.24
2023-04-18T04:41:54.037Z,22.26
2023-04-18T04:44:20.894Z,22.23
2023-04-18T04:46:47.805Z,22.26
2023-04-18T04:49:14.640Z,22.25
2023-04-18T04:51:41.435Z,22.21
2023-04-18T04:54:08.230Z,22.21
2023-04-18T04:56:35.011Z,22.23
2023-04-18T04:59:01.729Z,22.19
2023-04-18T05:01:28.575Z,22.22
2023-04-18T05:03:55.529Z,22.23
2023-04-18T05:06:22.308Z,22.23
2023-04-18T05:08:49.377Z,22.18
2023-04-18T05:11:16.516Z,22.21
2023-04-18T05:13:43.476Z,22.19
2023-04-18T05:16:10.355Z,22.22
2023-04-18T05:18:37.140Z,22.22
2023-04-18T05:21:04.031Z,22.25
2023-04-18T05:23:30.704Z,22.24
2023-04-18T05:25:57.477Z,22.24
2023-04-18T05:28:25.697Z,22.23
2023-04-18T05:30:52.474Z,22.22
2023-04-18T05:33:19.327Z,22.23
2023-04-18T05:35:46.044Z,22.20
2023-04-18T05:38:12.794Z,22.26
2023-04-18T05:40:39.637Z,22.30
2023-04-18T05:43:06.412Z,22.31
2023-04-18T05:45:33.154Z,22.33
2023-04-18T05:48:00.026Z,22.37
2023-04-18T05:50:26.881Z,22.34
2023-04-18T05:52:53.698Z,22.37
2023-04-18T05:55:20.547Z,22.39
2023-04-18T05:57:47.244Z,22.42
2023-04-18T06:00:14.624Z,22.47
2023-04-18T06:02:41.574Z,22.46
2023-04-18T06:05:09.293Z,22.50
2023-04-18T06:07:36.109Z,22.49
2023-04-18T06:10:02.978Z,22.54
2023-04-18T06:12:29.698Z,22.58
2023-04-18T06:14:56.478Z,22.58
2023-04-18T06:17:25.942Z,22.63
2023-04-18T06:19:52.741Z,22.59
2023-04-18T06:22:19.510Z,22.62
2023-04-18T06:24:46.451Z,22.63
2023-04-18T06:27:27.984Z,22.65
2023-04-18T06:29:58.160Z,22.65
2023-04-18T06:32:24.934Z,22.59
2023-04-18T06:34:54.169Z,22.67
2023-04-18T06:37:22.103Z,22.72
2023-04-18T06:39:48.850Z,22.71
2023-04-18T06:42:15.725Z,22.70
2023-04-18T06:44:42.510Z,22.70
2023-04-18T06:47:09.643Z,22.66
2023-04-18T06:49:36.478Z,22.64
2023-04-18T06:52:03.372Z,22.70
2023-04-18T06:54:30.116Z,22.69
2023-04-18T06:56:56.863Z,22.67
2023-04-18T06:59:23.622Z,22.65
2023-04-18T07:01:51.000Z,22.64
2023-04-18T07:04:18.146Z,22.57
2023-04-18T07:06:45.496Z,22.54
2023-04-18T07:09:12.196Z,22.48
2023-04-18T07:11:38.899Z,22.50
2023-04-18T07:14:05.625Z,22.48
2023-04-18T07:16:32.381Z,22.37
2023-04-18T07:19:02.269Z,22.48
2023-04-18T07:21:28.976Z,22.54
2023-04-18T07:26:22.263Z,22.60
2023-04-18T07:28:49.140Z,22.66
2023-04-18T07:31:15.938Z,22.66
2023-04-18T07:33:42.706Z,22.68
2023-04-18T07:36:09.474Z,22.63
2023-04-18T07:38:36.320Z,22.66
2023-04-18T07:41:03.087Z,22.66
2023-04-18T07:43:33.903Z,22.66
2023-04-18T07:46:00.721Z,22.63
2023-04-18T07:48:27.531Z,22.65
2023-04-18T07:50:54.244Z,22.65
2023-04-18T07:53:20.980Z,22.68
2023-04-18T07:55:47.718Z,22.71
2023-04-18T07:58:14.435Z,22.75
2023-04-18T08:00:42.324Z,22.76
2023-04-18T08:03:09.735Z,22.75
2023-04-18T08:05:36.913Z,22.75
2023-04-18T08:08:03.953Z,22.80
2023-04-18T08:10:30.768Z,22.80
2023-04-18T08:12:58.813Z,22.77
2023-04-18T08:15:25.769Z,22.83
2023-04-18T08:17:52.615Z,22.87
2023-04-18T08:20:21.230Z,22.90
2023-04-18T08:23:05.233Z,22.91
2023-04-18T08:25:34.571Z,22.85
2023-04-18T08:28:01.338Z,22.86
2023-04-18T08:30:28.291Z,22.87
2023-04-18T08:32:55.089Z,22.91
2023-04-18T08:35:21.916Z,22.95
2023-04-18T08:37:48.754Z,22.96
2023-04-18T08:40:15.618Z,22.99
2023-04-18T08:42:43.019Z,23.04
2023-04-18T08:45:10.163Z,23.07
2023-04-18T08:47:37.127Z,23.03
2023-04-18T08:50:04.705Z,23.05
2023-04-18T08:52:31.621Z,23.04
2023-04-18T08:54:58.379Z,23.04
2023-04-18T08:57:25.108Z,23.04
2023-04-18T08:59:51.848Z,23.08
2023-04-18T09:02:18.651Z,23.11
2023-04-18T09:04:46.444Z,23.06
2023-04-18T09:07:14.553Z,23.08
2023-04-18T09:09:44.975Z,23.05
2023-04-18T09:12:12.306Z,23.04
2023-04-18T09:14:39.085Z,23.07
2023-04-18T09:17:05.816Z,23.07
2023-04-18T09:19:32.606Z,23.06
2023-04-18T09:22:00.334Z,23.00
2023-04-18T09:24:27.265Z,23.07
2023-04-18T09:26:54.543Z,23.11
2023-04-18T09:29:21.933Z,23.09
2023-04-18T09:32:01.175Z,23.11
2023-04-18T09:34:28.787Z,23.09
2023-04-18T09:37:12.284Z,23.11
2023-04-18T09:39:40.131Z,23.10
2023-04-18T09:42:06.944Z,23.10
2023-04-18T09:44:33.746Z,23.01
2023-04-18T09:47:01.095Z,23.01
2023-04-18T09:49:28.180Z,22.99
2023-04-18T09:51:55.496Z,23.02
2023-04-18T09:54:25.411Z,22.99
2023-04-18T09:56:52.547Z,22.97
2023-04-18T09:59:33.214Z,22.99
2023-04-18T10:02:01.950Z,22.97
2023-04-18T10:04:28.849Z,22.92
2023-04-18T10:06:55.731Z,22.90
2023-04-18T10:09:22.544Z,22.89
2023-04-18T10:11:49.365Z,22.91
2023-04-18T10:14:16.525Z,22.91
2023-04-18T10:16:43.771Z,22.88
2023-04-18T10:19:26.786Z,22.93
2023-04-18T10:21:58.058Z,22.89
2023-04-18T10:24:46.357Z,22.91
2023-04-18T10:27:13.205Z,22.92
2023-04-18T10:29:50.042Z,22.90
2023-04-18T10:32:18.165Z,22.91
2023-04-18T10:34:46.605Z,22.91
2023-04-18T10:37:13.478Z,22.90
2023-04-18T10:40:07.113Z,22.88
2023-04-18T10:42:45.675Z,22.89
2023-04-18T10:45:25.015Z,22.89
2023-04-18T10:47:54.206Z,22.92
2023-04-18T10:50:20.998Z,22.94
2023-04-18T10:52:47.840Z,22.98
2023-04-18T10:55:18.984Z,22.99
2023-04-18T10:57:47.733Z,22.96
2023-04-18T11:00:16.731Z,22.98
2023-04-18T11:02:51.461Z,22.97
2023-04-18T11:05:28.439Z,23.01
2023-04-18T11:07:55.452Z,23.00
2023-04-18T11:10:23.568Z,23.01
2023-04-18T11:12:50.974Z,23.03
2023-04-18T11:15:24.258Z,22.99
2023-04-18T11:17:58.871Z,22.97
2023-04-18T11:20:25.834Z,23.02
2023-04-18T11:22:57.733Z,23.01
2023-04-18T11:25:29.173Z,23.02
2023-04-18T11:28:00.738Z,23.03
2023-04-18T11:30:28.019Z,23.03
2023-04-18T11:32:54.812Z,23.02
2023-04-18T11:35:21.625Z,23.06
2023-04-18T11:37:48.418Z,23.09
2023-04-18T11:40:15.237Z,23.09
2023-04-18T11:42:42.121Z,23.08
2023-04-18T11:45:12.822Z,23.11
2023-04-18T11:47:40.006Z,23.11
2023-04-18T11:50:07.793Z,23.10
2023-04-18T11:52:35.116Z,23.11
2023-04-18T11:55:15.526Z,23.08
2023-04-18T11:57:42.539Z,23.07
2023-04-18T12:00:10.058Z,23.03
2023-04-18T12:02:46.537Z,23.04
2023-04-18T12:05:24.437Z,23.03
2023-04-18T12:07:51.301Z,23.06
2023-04-18T12:10:20.964Z,23.03
2023-04-18T12:12:48.547Z,23.11
2023-04-18T12:15:15.959Z,23.16
2023-04-18T12:17:46.598Z,23.13
2023-04-18T12:20:13.845Z,23.16
2023-04-18T12:22:45.147Z,23.14
2023-04-18T12:25:26.947Z,23.12
2023-04-18T12:28:15.472Z,23.17
2023-04-18T12:30:42.541Z,23.16
2023-04-18T12:33:09.289Z,23.19
2023-04-18T12:35:36.092Z,23.15
2023-04-18T12:38:03.074Z,23.19
2023-04-18T12:40:30.103Z,23.17
2023-04-18T12:42:56.812Z,23.19
2023-04-18T12:45:23.835Z,23.21
2023-04-18T12:47:51.300Z,23.28
2023-04-18T12:50:22.548Z,23.33
2023-04-18T12:52:50.588Z,23.37
2023-04-18T12:55:17.468Z,23.44
2023-04-18T12:57:44.209Z,23.50
2023-04-18T13:00:11.513Z,23.59
2023-04-18T13:02:40.044Z,23.63
2023-04-18T13:05:08.096Z,23.67
2023-04-18T13:07:35.051Z,23.67
2023-04-18T13:10:01.827Z,23.65
2023-04-18T13:12:28.532Z,23.56
2023-04-18T13:14:55.352Z,23.48
2023-04-18T13:17:22.236Z,23.44
2023-04-18T13:19:49.182Z,23.52
2023-04-18T13:22:16.978Z,23.60
2023-04-18T13:24:43.707Z,23.54
2023-04-18T13:27:10.439Z,23.55
2023-04-18T13:29:38.542Z,23.66
2023-04-18T13:32:05.965Z,23.62
2023-04-18T13:34:38.615Z,23.69
2023-04-18T13:37:05.948Z,23.74
2023-04-18T13:39:32.980Z,23.96
2023-04-18T13:41:59.839Z,24.01
2023-04-18T13:44:26.718Z,23.97
2023-04-18T13:46:53.563Z,23.98
2023-04-18T13:49:20.387Z,24.12
2023-04-18T13:51:47.228Z,24.05
2023-04-18T13:54:15.149Z,24.04
2023-04-18T13:56:42.296Z,23.94
2023-04-18T13:59:08.997Z,24.06
2023-04-18T14:01:38.637Z,24.11
2023-04-18T14:04:05.734Z,24.14
2023-04-18T14:06:32.599Z,24.29
2023-04-18T14:08:59.397Z,24.29
2023-04-18T14:11:26.200Z,24.28
2023-04-18T14:13:53.001Z,24.39
2023-04-18T14:16:19.815Z,24.50
2023-04-18T14:18:46.662Z,24.58
2023-04-18T14:21:13.465Z,24.59
2023-04-18T14:23:40.323Z,24.60
2023-04-18T14:26:07.354Z,24.64
2023-04-18T14:28:34.082Z,24.69
2023-04-18T14:31:00.927Z,24.62
2023-04-18T14:33:27.796Z,24.54
2023-04-18T14:35:54.875Z,24.42
2023-04-18T14:38:21.608Z,24.44
2023-04-18T14:40:48.342Z,24.54
2023-04-18T14:43:15.122Z,24.53
2023-04-18T14:45:41.839Z,24.63
2023-04-18T14:48:10.184Z,24.86
2023-04-18T14:50:37.294Z,24.86
2023-04-18T14:53:04.926Z,25.06
2023-04-18T14:55:32.442Z,25.12
2023-04-18T14:57:59.175Z,25.39
2023-04-18T15:00:26.097Z,25.51
2023-04-18T15:02:53.258Z,25.66
2023-04-18T15:05:20.737Z,25.84
2023-04-18T15:07:47.551Z,25.94
2023-04-18T15:10:14.363Z,26.05
2023-04-18T15:12:41.237Z,26.06
2023-04-18T15:15:08.869Z,26.27
2023-04-18T15:17:35.682Z,26.43
2023-04-18T15:20:02.689Z,26.55
2023-04-18T15:22:31.741Z,26.65
2023-04-18T15:24:58.489Z,26.80
2023-04-18T15:27:25.232Z,26.95
2023-04-18T15:29:52.437Z,27.04
2023-04-18T15:32:19.200Z,27.16
2023-04-18T15:34:46.054Z,27.39
2023-04-18T15:37:12.840Z,27.49
2023-04-18T15:39:39.631Z,27.50
2023-04-18T15:42:06.491Z,27.65
2023-04-18T15:44:34.540Z,27.65
2023-04-18T15:47:04.202Z,27.85
2023-04-18T15:49:30.896Z,28.10
2023-04-18T15:51:57.703Z,28.50
2023-04-18T15:54:24.402Z,28.70
2023-04-18T15:56:51.194Z,29.25
2023-04-18T15:59:17.863Z,30.05
2023-04-18T16:01:45.853Z,30.71
2023-04-18T16:04:13.216Z,31.60
2023-04-18T16:06:40.315Z,32.35
2023-04-18T16:09:07.055Z,32.91
2023-04-18T16:11:33.778Z,33.39
2023-04-18T16:14:00.520Z,33.86
2023-04-18T16:16:27.325Z,34.10
2023-04-18T16:18:54.159Z,34.51
2023-04-18T16:21:20.918Z,34.49
2023-04-18T16:23:48.319Z,34.61
2023-04-18T16:26:15.197Z,34.41
2023-04-18T16:28:41.953Z,34.23
2023-04-18T16:31:08.843Z,34.31
2023-04-18T16:33:35.635Z,33.61
2023-04-18T16:36:02.542Z,30.17
2023-04-18T16:38:29.354Z,28.67
2023-04-18T16:40:56.420Z,27.99
2023-04-18T16:43:23.922Z,27.47
2023-04-18T16:45:54.454Z,27.15
2023-04-18T16:48:21.157Z,26.96
2023-04-18T16:50:48.006Z,28.31
2023-04-18T16:53:14.690Z,28.52
2023-04-18T16:55:41.422Z,27.73
2023-04-18T16:58:08.377Z,27.39
2023-04-18T17:00:38.391Z,27.17
2023-04-18T17:03:05.456Z,26.85
2023-04-18T17:05:32.888Z,26.47
2023-04-18T17:08:00.364Z,26.36
2023-04-18T17:10:29.262Z,26.78
2023-04-18T17:12:56.112Z,26.94
2023-04-18T17:15:23.017Z,27.78
2023-04-18T17:17:49.989Z,28.66
2023-04-18T17:20:16.829Z,28.26
2023-04-18T17:22:46.090Z,29.06
2023-04-18T17:25:12.797Z,28.19
2023-04-18T17:27:39.854Z,26.98
2023-04-18T17:30:12.688Z,26.33
2023-04-18T17:32:39.454Z,26.02
2023-04-18T17:35:06.530Z,25.79
2023-04-18T17:37:33.350Z,25.69
2023-04-18T17:40:00.160Z,25.39
2023-04-18T17:42:27.117Z,25.32
2023-04-18T17:44:53.915Z,25.24
2023-04-18T17:47:20.683Z,25.16
2023-04-18T17:49:47.621Z,25.13
2023-04-18T17:52:14.329Z,25.04
2023-04-18T17:54:41.149Z,25.01
2023-04-18T17:57:07.981Z,24.95
2023-04-18T17:59:35.012Z,24.88
2023-04-18T18:02:01.822Z,24.84
2023-04-18T18:04:28.694Z,24.79
2023-04-18T18:06:56.042Z,24.72
2023-04-18T18:09:22.842Z,24.69
2023-04-18T18:11:49.545Z,24.66
2023-04-18T18:14:16.330Z,24.53
2023-04-18T18:16:43.811Z,24.51
2023-04-18T18:19:10.908Z,24.47
2023-04-18T18:21:37.718Z,24.45
2023-04-18T18:24:04.701Z,24.42
2023-04-18T18:26:31.476Z,24.25
2023-04-18T18:28:58.259Z,24.17
2023-04-18T18:31:25.112Z,24.08
2023-04-18T18:33:54.952Z,23.98
2023-04-18T18:36:21.672Z,23.95
2023-04-18T18:38:48.417Z,24.10
2023-04-18T18:41:15.124Z,24.14
2023-04-18T18:43:41.850Z,24.18
2023-04-18T18:46:11.329Z,24.18
2023-04-18T18:48:38.326Z,24.17
2023-04-18T18:51:05.107Z,24.16
2023-04-18T18:53:31.862Z,24.12
2023-04-18T18:55:58.671Z,24.09
2023-04-18T18:58:25.537Z,24.09
2023-04-18T19:00:52.316Z,24.07
2023-04-18T19:03:21.031Z,24.07
2023-04-18T19:05:48.003Z,24.03
2023-04-18T19:08:14.805Z,23.97
2023-04-18T19:10:41.771Z,23.95
2023-04-18T19:13:08.833Z,23.89
2023-04-18T19:15:35.623Z,23.83
2023-04-18T19:18:02.396Z,23.84
2023-04-18T19:20:29.322Z,23.77
2023-04-18T19:22:56.203Z,23.72
2023-04-18T19:25:23.069Z,23.73
2023-04-18T19:27:49.864Z,23.68
2023-04-18T19:30:19.190Z,23.67
2023-04-18T19:32:45.972Z,23.67
2023-04-18T19:35:12.682Z,23.70
2023-04-18T19:37:39.480Z,23.67
2023-04-18T19:40:06.796Z,23.57
2023-04-18T19:42:33.508Z,23.50
2023-04-18T19:45:00.325Z,23.53
2023-04-18T19:47:27.189Z,23.54
2023-04-18T19:49:58.065Z,23.54
2023-04-18T19:52:24.736Z,23.59
2023-04-18T19:54:52.736Z,23.55
2023-04-18T19:57:19.388Z,23.49
2023-04-18T19:59:46.239Z,23.50
2023-04-18T20:02:12.978Z,23.46
2023-04-18T20:04:39.887Z,23.50
2023-04-18T20:07:06.697Z,23.48
2023-04-18T20:09:33.411Z,23.47
2023-04-18T20:12:00.161Z,23.46
2023-04-18T20:14:27.740Z,23.42
2023-04-18T20:16:55.029Z,23.42
2023-04-18T20:19:22.525Z,23.41
2023-04-18T20:21:49.193Z,23.38
2023-04-18T20:24:16.022Z,23.39
2023-04-18T20:26:42.830Z,23.38
2023-04-18T20:29:09.640Z,23.41
2023-04-18T20:31:36.363Z,23.38
2023-04-18T20:34:03.106Z,23.40
2023-04-18T20:36:29.894Z,23.37
2023-04-18T20:38:56.670Z,23.36
2023-04-18T20:41:23.507Z,23.36
2023-04-18T20:43:50.207Z,23.39
2023-04-18T20:46:17.017Z,23.34
2023-04-18T20:48:43.824Z,23.38
2023-04-18T20:51:10.753Z,23.36
2023-04-18T20:53:37.510Z,23.33
2023-04-18T20:56:04.368Z,23.33
2023-04-18T20:58:31.146Z,23.35
2023-04-18T21:00:58.033Z,23.36
2023-04-18T21:03:25.111Z,23.33
2023-04-18T21:05:52.372Z,23.32
2023-04-18T21:08:19.082Z,23.33
2023-04-18T21:10:45.811Z,23.30
2023-04-18T21:13:12.620Z,23.33
2023-04-18T21:15:40.982Z,23.30
2023-04-18T21:18:07.798Z,23.31
2023-04-18T21:20:34.596Z,23.29
2023-04-18T21:23:04.216Z,23.31
2023-04-18T21:25:30.946Z,23.32
2023-04-18T21:27:57.728Z,23.31
2023-04-18T21:30:24.560Z,23.35
2023-04-18T21:32:51.314Z,23.31
2023-04-18T21:35:20.138Z,23.29
2023-04-18T21:37:48.167Z,23.30
2023-04-18T21:40:15.006Z,23.28
2023-04-18T21:42:41.832Z,23.28
2023-04-18T21:45:09.684Z,23.28
2023-04-18T21:47:36.504Z,23.30
2023-04-18T21:50:03.730Z,23.25
2023-04-18T21:52:30.494Z,23.22
2023-04-18T21:54:57.331Z,23.17
2023-04-18T21:57:24.166Z,23.20
2023-04-18T21:59:50.908Z,23.19
2023-04-18T22:02:17.711Z,23.22
2023-04-18T22:04:44.574Z,23.23
2023-04-18T22:07:11.367Z,23.22
2023-04-18T22:09:38.212Z,23.25
2023-04-18T22:12:05.223Z,23.20
2023-04-18T22:14:32.103Z,23.21
2023-04-18T22:16:59.202Z,23.19
2023-04-18T22:19:26.097Z,23.19
2023-04-18T22:21:52.819Z,23.20
2023-04-18T22:24:19.562Z,23.17
2023-04-18T22:26:46.356Z,23.17
2023-04-18T22:29:13.237Z,23.19
2023-04-18T22:31:39.969Z,23.16
2023-04-18T22:34:06.728Z,23.16
2023-04-18T22:36:33.535Z,23.16
2023-04-18T22:39:00.371Z,23.17
2023-04-18T22:41:27.096Z,23.15
2023-04-18T22:43:53.859Z,23.17
2023-04-18T22:46:20.842Z,23.11
2023-04-18T22:48:47.673Z,23.10
2023-04-18T22:51:14.389Z,23.09
2023-04-18T22:53:41.124Z,23.14
2023-04-18T22:56:08.007Z,23.06
2023-04-18T22:58:34.777Z,23.09
2023-04-18T23:01:01.489Z,23.09
2023-04-18T23:03:28.456Z,23.10
2023-04-18T23:05:55.212Z,23.09
2023-04-18T23:08:21.976Z,23.09
2023-04-18T23:10:48.780Z,23.08
2023-04-18T23:13:15.578Z,23.11
2023-04-18T23:15:42.420Z,23.11
2023-04-18T23:18:09.244Z,23.10
2023-04-18T23:20:36.024Z,23.09
2023-04-18T23:23:02.760Z,23.07
2023-04-18T23:25:32.150Z,23.09
2023-04-18T23:27:59.074Z,23.09
2023-04-18T23:30:26.146Z,23.07
2023-04-18T23:32:52.932Z,23.08
2023-04-18T23:35:19.681Z,23.07
2023-04-18T23:37:46.484Z,23.05
2023-04-18T23:40:13.314Z,23.05
2023-04-18T23:42:40.063Z,23.07
2023-04-18T23:45:07.307Z,23.03
2023-04-18T23:47:39.148Z,23.03
2023-04-18T23:50:06.466Z,23.06
2023-04-18T23:52:33.346Z,23.06
2023-04-18T23:55:00.811Z,23.07
2023-04-18T23:57:27.687Z,23.07
2023-04-18T23:59:54.522Z,23.06
